createdAt,value
2019-01-19T00:00:25.583Z,97.90
2019-01-19T00:03:18.551Z,97.90
2019-01-19T00:06:20.943Z,98.00
2019-01-19T00:08:55.263Z,97.90
2019-01-19T00:11:35.051Z,97.90
2019-01-19T00:14:11.708Z,98.00
2019-01-19T00:16:48.433Z,98.00
2019-01-19T00:19:28.089Z,98.10
2019-01-19T00:22:13.577Z,98.10
2019-01-19T00:24:52.937Z,98.10
2019-01-19T00:27:47.574Z,98.10
2019-01-19T00:30:24.230Z,98.50
2019-01-19T00:33:03.491Z,98.50
2019-01-19T00:35:57.871Z,98.10
2019-01-19T00:38:50.917Z,98.20
2019-01-19T00:41:56.487Z,98.20
2019-01-19T00:44:47.541Z,98.20
2019-01-19T00:47:39.422Z,98.20
2019-01-19T00:50:24.885Z,98.20
2019-01-19T00:53:04.495Z,98.30
2019-01-19T00:55:52.881Z,98.20
2019-01-19T00:58:41.597Z,98.30
2019-01-19T01:01:24.535Z,98.20
2019-01-19T01:04:22.327Z,98.30
2019-01-19T01:07:04.931Z,98.30
2019-01-19T01:09:44.477Z,98.40
2019-01-19T01:12:38.007Z,98.80
2019-01-19T01:15:17.563Z,98.40
2019-01-19T01:17:53.501Z,98.50
2019-01-19T01:20:54.323Z,98.50
2019-01-19T01:23:31.021Z,98.50
2019-01-19T01:26:13.490Z,98.50
2019-01-19T01:28:58.920Z,98.50
2019-01-19T01:31:35.593Z,98.60
2019-01-19T01:34:27.160Z,98.60
2019-01-19T01:37:12.335Z,98.70
2019-01-19T01:40:08.401Z,98.70
2019-01-19T01:42:45.119Z,98.60
2019-01-19T01:45:24.516Z,98.60
2019-01-19T01:48:29.947Z,98.70
2019-01-19T01:51:12.327Z,98.70
2019-01-19T01:53:54.665Z,98.80
2019-01-19T01:56:28.265Z,98.90
2019-01-19T01:59:07.344Z,98.80
2019-01-19T02:01:44.043Z,98.80
2019-01-19T02:04:26.432Z,98.90
2019-01-19T02:07:05.887Z,98.90
2019-01-19T02:09:48.754Z,99.00
2019-01-19T02:12:37.249Z,99.00
2019-01-19T02:15:28.947Z,98.90
2019-01-19T02:18:20.398Z,99.00
2019-01-19T02:21:11.946Z,99.10
2019-01-19T02:23:51.052Z,99.10
2019-01-19T02:26:44.418Z,99.10
2019-01-19T02:29:42.129Z,99.10
2019-01-19T02:32:30.667Z,99.00
2019-01-19T02:35:15.970Z,99.10
2019-01-19T02:38:18.407Z,98.90
2019-01-19T02:41:03.711Z,98.90
2019-01-19T02:43:49.105Z,98.90
2019-01-19T02:46:46.528Z,98.90
2019-01-19T02:49:41.645Z,99.00
2019-01-19T02:55:33.950Z,99.00
2019-01-19T02:58:32.781Z,99.00
2019-01-19T03:01:35.053Z,99.20
2019-01-19T03:04:25.833Z,99.00
2019-01-19T03:07:14.484Z,99.00
2019-01-19T03:09:53.972Z,99.00
2019-01-19T03:12:48.391Z,99.10
2019-01-19T03:15:31.529Z,99.10
2019-01-19T03:18:23.071Z,99.10
2019-01-19T03:21:02.677Z,99.10
2019-01-19T03:23:57.298Z,99.10
2019-01-19T03:26:36.770Z,99.10
2019-01-19T03:29:34.409Z,99.10
2019-01-19T03:32:23.159Z,99.20
2019-01-19T03:34:59.830Z,99.20
2019-01-19T03:37:45.654Z,99.20
2019-01-19T03:40:41.872Z,99.30
2019-01-19T03:43:27.070Z,99.20
2019-01-19T03:46:03.736Z,99.20
2019-01-19T03:49:12.417Z,99.20
2019-01-19T03:51:51.804Z,99.20
2019-01-19T03:54:40.236Z,99.50
2019-01-19T03:57:16.900Z,99.10
2019-01-19T03:59:56.340Z,99.10
2019-01-19T04:02:49.239Z,99.10
2019-01-19T04:05:25.938Z,99.10
2019-01-19T04:08:20.824Z,99.00
2019-01-19T04:11:09.496Z,99.10
2019-01-19T04:14:00.937Z,99.10
2019-01-19T04:16:42.901Z,99.20
2019-01-19T04:19:19.560Z,99.10
2019-01-19T04:21:58.745Z,99.40
2019-01-19T04:24:35.626Z,99.00
2019-01-19T04:27:09.256Z,98.90
2019-01-19T04:29:42.852Z,98.90
2019-01-19T04:32:16.468Z,98.90
2019-01-19T04:34:50.056Z,98.90
2019-01-19T04:37:23.703Z,98.90
2019-01-19T04:39:57.277Z,98.90
2019-01-19T04:42:31.241Z,98.80
2019-01-19T04:45:06.380Z,98.80
2019-01-19T04:47:40.012Z,98.90
2019-01-19T04:50:13.957Z,98.80
2019-01-19T04:52:47.568Z,98.80
2019-01-19T04:55:21.158Z,98.80
2019-01-19T04:57:54.799Z,99.30
2019-01-19T05:00:28.376Z,98.90
2019-01-19T05:03:02.025Z,98.90
2019-01-19T05:05:35.670Z,98.90
2019-01-19T05:08:09.374Z,98.90
2019-01-19T05:10:42.958Z,99.00
2019-01-19T05:13:16.622Z,99.00
2019-01-19T05:15:50.307Z,99.00
2019-01-19T05:18:24.130Z,99.20
2019-01-19T05:20:57.926Z,99.40
2019-01-19T05:23:31.780Z,99.60
2019-01-19T05:26:05.470Z,99.60
2019-01-19T05:28:39.067Z,99.60
2019-01-19T05:31:12.670Z,99.60
2019-01-19T05:33:46.272Z,99.50
2019-01-19T05:36:19.971Z,99.50
2019-01-19T05:38:53.807Z,99.40
2019-01-19T05:41:27.454Z,99.30
2019-01-19T05:44:01.168Z,99.30
2019-01-19T05:46:34.769Z,99.20
2019-01-19T05:49:08.425Z,99.10
2019-01-19T05:51:42.045Z,99.10
2019-01-19T05:54:15.690Z,99.10
2019-01-19T05:56:49.290Z,99.30
2019-01-19T05:59:22.990Z,99.50
2019-01-19T06:01:56.738Z,99.60
2019-01-19T06:04:30.379Z,99.60
2019-01-19T06:07:04.338Z,99.70
2019-01-19T06:09:37.978Z,99.60
2019-01-19T06:12:11.560Z,99.40
2019-01-19T06:14:45.196Z,99.20
2019-01-19T06:17:18.804Z,99.00
2019-01-19T06:19:52.913Z,99.00
2019-01-19T06:22:26.491Z,98.90
2019-01-19T06:25:00.340Z,98.80
2019-01-19T06:27:34.006Z,99.00
2019-01-19T06:30:23.496Z,99.00
2019-01-19T06:32:57.094Z,99.10
2019-01-19T06:35:30.675Z,99.20
2019-01-19T06:38:04.457Z,99.30
2019-01-19T06:40:38.138Z,99.40
2019-01-19T06:43:11.772Z,99.40
2019-01-19T06:45:45.568Z,99.30
2019-01-19T06:48:19.219Z,99.30
2019-01-19T06:50:52.870Z,99.30
2019-01-19T06:53:26.602Z,99.20
2019-01-19T06:56:00.323Z,99.10
2019-01-19T06:58:33.931Z,99.10
2019-01-19T07:01:07.550Z,99.00
2019-01-19T07:03:41.233Z,98.90
2019-01-19T07:06:14.833Z,98.90
2019-01-19T07:08:48.572Z,98.90
2019-01-19T07:11:22.244Z,98.90
2019-01-19T07:13:55.874Z,98.90
2019-01-19T07:16:29.532Z,98.80
2019-01-19T07:19:03.235Z,98.80
2019-01-19T07:21:36.831Z,98.90
2019-01-19T07:24:10.550Z,99.00
2019-01-19T07:26:44.142Z,99.20
2019-01-19T07:29:17.839Z,99.20
2019-01-19T07:31:51.511Z,99.20
2019-01-19T07:34:25.478Z,99.10
2019-01-19T07:36:59.059Z,98.90
2019-01-19T07:39:32.849Z,98.80
2019-01-19T07:42:06.442Z,98.70
2019-01-19T07:44:40.146Z,98.50
2019-01-19T07:47:14.232Z,98.40
2019-01-19T07:49:47.933Z,98.30
2019-01-19T07:52:21.645Z,98.20
2019-01-19T07:54:55.307Z,98.00
2019-01-19T07:57:31.466Z,98.00
2019-01-19T08:00:07.325Z,98.00
2019-01-19T08:02:41.117Z,98.00
2019-01-19T08:05:14.887Z,97.90
2019-01-19T08:07:48.745Z,97.80
2019-01-19T08:10:22.641Z,97.60
2019-01-19T08:12:56.239Z,97.60
2019-01-19T08:15:30.003Z,97.50
2019-01-19T08:18:03.672Z,97.50
2019-01-19T08:20:37.309Z,97.50
2019-01-19T08:23:10.909Z,97.50
2019-01-19T08:25:44.535Z,97.50
2019-01-19T08:28:18.142Z,97.60
2019-01-19T08:30:51.915Z,97.70
2019-01-19T08:33:25.987Z,97.50
2019-01-19T08:35:59.661Z,97.40
2019-01-19T08:38:33.295Z,97.30
2019-01-19T08:41:07.007Z,97.10
2019-01-19T08:43:42.319Z,96.60
2019-01-19T08:46:15.981Z,96.50
2019-01-19T08:48:49.769Z,96.10
2019-01-19T08:51:23.468Z,95.80
2019-01-19T08:53:57.174Z,95.50
2019-01-19T08:56:30.953Z,95.30
2019-01-19T08:59:04.889Z,95.10
2019-01-19T09:01:38.477Z,95.10
2019-01-19T09:04:12.189Z,95.10
2019-01-19T09:06:45.857Z,94.90
2019-01-19T09:09:19.527Z,94.80
2019-01-19T09:11:53.199Z,94.60
2019-01-19T09:14:27.003Z,94.60
2019-01-19T09:17:00.608Z,94.80
2019-01-19T09:19:35.112Z,95.00
2019-01-19T09:22:08.761Z,95.10
2019-01-19T09:24:42.399Z,95.20
2019-01-19T09:27:16.045Z,95.20
2019-01-19T09:29:49.748Z,95.40
2019-01-19T09:32:23.884Z,95.60
2019-01-19T09:34:57.501Z,95.50
2019-01-19T09:37:31.159Z,95.50
2019-01-19T09:40:08.020Z,95.40
2019-01-19T09:42:41.776Z,95.30
2019-01-19T09:45:19.722Z,95.40
2019-01-19T09:47:53.387Z,95.50
2019-01-19T09:50:27.181Z,95.30
2019-01-19T09:53:00.831Z,95.60
2019-01-19T09:55:34.839Z,94.80
2019-01-19T09:58:08.508Z,94.60
2019-01-19T10:00:45.745Z,94.40
2019-01-19T10:03:17.433Z,94.30
2019-01-19T10:05:51.084Z,94.00
2019-01-19T10:08:24.691Z,93.80
2019-01-19T10:10:58.658Z,93.60
2019-01-19T10:13:32.240Z,93.80
2019-01-19T10:16:05.996Z,93.40
2019-01-19T10:18:39.828Z,93.00
2019-01-19T10:21:13.605Z,92.90
2019-01-19T10:23:47.191Z,92.60
2019-01-19T10:26:20.893Z,92.60
2019-01-19T10:28:54.848Z,92.60
2019-01-19T10:31:28.460Z,92.70
2019-01-19T10:34:02.090Z,92.40
2019-01-19T10:36:35.676Z,92.40
2019-01-19T10:39:09.585Z,92.70
2019-01-19T10:41:43.238Z,92.70
2019-01-19T10:44:16.835Z,92.40
2019-01-19T10:46:50.477Z,92.40
2019-01-19T10:49:24.106Z,91.80
2019-01-19T10:51:59.456Z,91.80
2019-01-19T10:54:33.084Z,92.00
2019-01-19T10:57:06.679Z,91.90
2019-01-19T10:59:40.329Z,92.20
2019-01-19T11:02:13.951Z,92.30
2019-01-19T11:04:47.757Z,92.30
2019-01-19T11:07:21.410Z,92.50
2019-01-19T11:09:55.095Z,92.80
2019-01-19T11:12:28.685Z,92.90
2019-01-19T11:15:02.395Z,93.00
2019-01-19T11:17:36.047Z,93.20
2019-01-19T11:20:13.329Z,93.20
2019-01-19T11:22:47.334Z,93.00
2019-01-19T11:28:58.126Z,92.70
2019-01-19T11:31:31.771Z,92.50
2019-01-19T11:34:05.468Z,91.80
2019-01-19T11:36:39.127Z,91.80
2019-01-19T11:39:13.121Z,91.70
2019-01-19T11:41:46.673Z,91.50
2019-01-19T11:44:20.385Z,91.30
2019-01-19T11:46:54.006Z,91.20
2019-01-19T11:49:27.699Z,91.30
2019-01-19T11:52:01.291Z,91.40
2019-01-19T11:54:35.341Z,91.30
2019-01-19T11:57:08.991Z,91.10
2019-01-19T11:59:42.699Z,90.90
2019-01-19T12:02:16.281Z,91.10
2019-01-19T12:04:50.063Z,91.10
2019-01-19T12:07:23.711Z,91.20
2019-01-19T12:09:57.352Z,91.70
2019-01-19T12:12:30.928Z,91.70
2019-01-19T12:15:06.701Z,91.60
2019-01-19T12:17:40.357Z,92.00
2019-01-19T12:20:25.609Z,92.20
2019-01-19T12:22:59.362Z,91.80
2019-01-19T12:25:33.056Z,91.60
2019-01-19T12:28:06.876Z,91.50
2019-01-19T12:30:42.411Z,91.20
2019-01-19T12:33:16.119Z,91.20
2019-01-19T12:35:49.945Z,91.10
2019-01-19T12:42:00.811Z,90.70
2019-01-19T12:44:34.457Z,90.20
2019-01-19T12:47:08.115Z,90.00
2019-01-19T12:49:41.975Z,89.50
2019-01-19T12:52:15.567Z,89.50
2019-01-19T12:58:26.702Z,90.00
2019-01-19T13:01:00.434Z,90.00
2019-01-19T13:03:34.269Z,90.10
2019-01-19T13:06:13.829Z,90.40
2019-01-19T13:08:47.483Z,90.60
2019-01-19T13:11:42.433Z,91.10
2019-01-19T13:14:16.033Z,90.90
2019-01-19T13:17:10.870Z,91.10
2019-01-19T13:19:47.540Z,91.20
2019-01-19T13:22:36.145Z,91.40
2019-01-19T13:25:15.765Z,91.60
2019-01-19T13:28:04.295Z,91.70
2019-01-19T13:30:46.369Z,91.80
2019-01-19T13:33:42.269Z,91.80
2019-01-19T13:39:56.126Z,92.00
2019-01-19T13:42:56.897Z,92.10
2019-01-19T13:45:48.896Z,92.50
2019-01-19T13:48:34.549Z,93.20
2019-01-19T13:51:17.223Z,93.20
2019-01-19T13:54:02.514Z,93.10
2019-01-19T13:57:06.697Z,93.00
2019-01-19T13:59:55.619Z,93.00
2019-01-19T14:02:38.229Z,93.10
2019-01-19T14:08:49.335Z,93.00
2019-01-19T14:11:48.785Z,93.00
2019-01-19T14:14:46.253Z,92.60
2019-01-19T14:17:37.973Z,92.60
2019-01-19T14:20:22.799Z,92.70
2019-01-19T14:23:15.910Z,92.70
2019-01-19T14:26:19.495Z,92.90
2019-01-19T14:29:07.995Z,93.10
2019-01-19T14:35:00.899Z,93.30
2019-01-19T14:38:11.089Z,93.60
2019-01-19T14:41:08.329Z,93.80
2019-01-19T14:43:50.676Z,94.40
2019-01-19T14:46:32.982Z,94.00
2019-01-19T14:49:32.050Z,94.10
2019-01-19T14:52:08.762Z,94.20
2019-01-19T14:54:48.153Z,94.30
2019-01-19T14:57:36.731Z,94.50
2019-01-19T15:00:22.437Z,94.70
2019-01-19T15:03:05.086Z,94.80
2019-01-19T15:06:01.170Z,94.90
2019-01-19T15:08:43.551Z,95.10
2019-01-19T15:11:48.753Z,95.30
2019-01-19T15:14:34.280Z,95.30
2019-01-19T15:17:16.896Z,95.50
2019-01-19T15:20:18.839Z,95.50
2019-01-19T15:26:02.957Z,95.70
2019-01-19T15:28:56.419Z,95.70
2019-01-19T15:31:51.084Z,95.70
2019-01-19T15:34:36.229Z,95.70
2019-01-19T15:37:33.320Z,95.90
2019-01-19T15:40:43.004Z,95.60
2019-01-19T15:43:28.340Z,95.60
2019-01-19T15:46:25.445Z,95.50
2019-01-19T15:49:04.806Z,95.60
2019-01-19T15:51:49.944Z,95.60
2019-01-19T15:54:47.444Z,95.60
2019-01-19T15:57:40.590Z,95.60
2019-01-19T16:00:28.836Z,95.60
2019-01-19T16:06:33.029Z,95.60
2019-01-19T16:09:18.467Z,95.70
2019-01-19T16:12:19.332Z,95.80
2019-01-19T16:15:26.232Z,95.80
2019-01-19T16:18:03.019Z,95.90
2019-01-19T16:21:03.477Z,95.90
2019-01-19T16:23:55.318Z,96.00
2019-01-19T16:26:37.990Z,96.10
2019-01-19T16:29:20.474Z,96.20
2019-01-19T16:32:16.632Z,96.10
2019-01-19T16:35:05.305Z,96.10
2019-01-19T16:37:59.837Z,96.20
2019-01-19T16:40:39.224Z,96.20
2019-01-19T16:43:21.112Z,96.30
2019-01-19T16:46:15.634Z,96.30
2019-01-19T16:48:55.046Z,96.40
2019-01-19T16:51:46.822Z,96.40
2019-01-19T16:54:26.392Z,96.40
2019-01-19T16:57:05.608Z,96.50
2019-01-19T17:00:11.002Z,96.50
2019-01-19T17:03:13.218Z,96.50
2019-01-19T17:05:50.326Z,96.60
2019-01-19T17:08:27.046Z,96.70
2019-01-19T17:11:22.044Z,96.80
2019-01-19T17:14:21.013Z,97.00
2019-01-19T17:16:57.836Z,97.30
2019-01-19T17:20:09.089Z,97.40
2019-01-19T17:23:00.782Z,97.50
2019-01-19T17:26:00.004Z,97.50
2019-01-19T17:28:53.071Z,97.30
2019-01-19T17:31:41.614Z,97.20
2019-01-19T17:34:30.343Z,97.20
2019-01-19T17:37:10.040Z,97.10
2019-01-19T17:39:55.352Z,97.10
2019-01-19T17:42:46.920Z,97.50
2019-01-19T17:45:49.074Z,97.10
2019-01-19T17:48:34.366Z,97.00
2019-01-19T17:51:19.852Z,97.00
2019-01-19T17:53:56.630Z,96.90
2019-01-19T17:56:33.394Z,96.90
2019-01-19T17:59:28.210Z,96.80
2019-01-19T18:02:22.392Z,96.80
2019-01-19T18:05:02.014Z,96.70
2019-01-19T18:10:48.262Z,96.80
2019-01-19T18:13:36.756Z,96.80
2019-01-19T18:16:16.494Z,96.90
2019-01-19T18:19:10.055Z,96.90
2019-01-19T18:22:01.933Z,97.00
2019-01-19T18:24:56.751Z,97.00
2019-01-19T18:27:36.604Z,97.00
2019-01-19T18:30:19.503Z,97.10
2019-01-19T18:33:04.785Z,97.10
2019-01-19T18:39:01.409Z,97.10
2019-01-19T18:41:54.655Z,97.10
2019-01-19T18:44:34.364Z,97.10
2019-01-19T18:47:29.194Z,97.10
2019-01-19T18:50:42.169Z,97.10
2019-01-19T18:53:27.726Z,97.10
2019-01-19T18:56:16.291Z,97.20
2019-01-19T18:58:55.907Z,97.20
2019-01-19T19:01:50.624Z,97.20
2019-01-19T19:04:33.056Z,97.30
2019-01-19T19:07:29.695Z,97.30
2019-01-19T19:10:24.285Z,97.30
2019-01-19T19:13:17.785Z,97.30
2019-01-19T19:19:06.152Z,97.30
2019-01-19T19:21:48.481Z,97.20
2019-01-19T19:25:01.168Z,97.20
2019-01-19T19:27:52.413Z,97.30
2019-01-19T19:30:31.805Z,97.30
2019-01-19T19:33:25.049Z,97.30
2019-01-19T19:36:29.028Z,97.30
2019-01-19T19:39:14.463Z,97.40
2019-01-19T19:42:16.779Z,97.40
2019-01-19T19:45:02.084Z,97.30
2019-01-19T19:47:50.762Z,97.20
2019-01-19T19:50:59.238Z,97.20
2019-01-19T19:53:32.933Z,97.20
2019-01-19T19:56:05.462Z,97.10
2019-01-19T19:58:39.115Z,97.10
2019-01-19T20:01:12.783Z,97.00
2019-01-19T20:03:46.443Z,96.90
2019-01-19T20:06:20.056Z,96.80
2019-01-19T20:08:53.807Z,96.80
2019-01-19T20:11:27.401Z,96.80
2019-01-19T20:14:01.061Z,96.80
2019-01-19T20:16:35.482Z,96.80
2019-01-19T20:19:09.268Z,96.80
2019-01-19T20:21:42.847Z,96.80
2019-01-19T20:24:16.554Z,96.80
2019-01-19T20:26:52.379Z,96.80
2019-01-19T20:29:26.040Z,96.90
2019-01-19T20:31:59.884Z,96.90
2019-01-19T20:34:33.562Z,96.90
2019-01-19T20:37:07.127Z,97.00
2019-01-19T20:39:40.868Z,97.00
2019-01-19T20:42:14.460Z,97.10
2019-01-19T20:44:48.167Z,97.10
2019-01-19T20:47:21.750Z,97.10
2019-01-19T20:49:55.426Z,97.10
2019-01-19T20:52:28.978Z,97.20
2019-01-19T20:55:02.841Z,97.20
2019-01-19T20:57:36.621Z,97.30
2019-01-19T21:00:18.700Z,97.40
2019-01-19T21:02:53.453Z,97.40
2019-01-19T21:05:27.255Z,97.30
2019-01-19T21:08:00.861Z,97.40
2019-01-19T21:10:34.626Z,97.30
2019-01-19T21:13:08.219Z,97.20
2019-01-19T21:15:41.976Z,97.20
2019-01-19T21:18:15.567Z,97.20
2019-01-19T21:20:49.207Z,97.10
2019-01-19T21:23:22.802Z,97.10
2019-01-19T21:25:56.631Z,97.10
2019-01-19T21:28:30.210Z,97.10
2019-01-19T21:31:03.859Z,97.10
2019-01-19T21:33:37.562Z,97.10
2019-01-19T21:36:11.271Z,97.10
2019-01-19T21:38:44.890Z,97.00
2019-01-19T21:41:18.689Z,97.00
2019-01-19T21:43:52.289Z,96.80
2019-01-19T21:46:25.932Z,96.70
2019-01-19T21:48:59.533Z,96.60
2019-01-19T21:51:33.143Z,96.50
2019-01-19T21:54:06.877Z,96.50
2019-01-19T21:56:40.539Z,96.50
2019-01-19T21:59:14.122Z,96.50
2019-01-19T22:01:47.836Z,96.30
2019-01-19T22:04:21.519Z,96.30
2019-01-19T22:06:55.232Z,96.30
2019-01-19T22:09:28.853Z,96.20
2019-01-19T22:12:02.772Z,96.10
2019-01-19T22:14:36.383Z,96.10
2019-01-19T22:17:09.983Z,95.90
2019-01-19T22:19:43.649Z,95.90
2019-01-19T22:22:17.257Z,95.90
2019-01-19T22:24:50.965Z,95.90
2019-01-19T22:27:24.845Z,95.90
2019-01-19T22:29:58.485Z,95.80
2019-01-19T22:32:32.229Z,95.70
2019-01-19T22:35:08.108Z,95.70
2019-01-19T22:37:41.697Z,95.70
2019-01-19T22:40:17.508Z,95.60
2019-01-19T22:42:52.225Z,95.60
2019-01-19T22:45:25.915Z,95.50
2019-01-19T22:47:59.510Z,95.50
2019-01-19T22:50:33.179Z,95.60
2019-01-19T22:53:06.780Z,95.90
2019-01-19T22:55:40.416Z,95.50
2019-01-19T22:58:14.007Z,95.50
2019-01-19T23:01:00.936Z,95.50
2019-01-19T23:03:34.960Z,95.60
2019-01-19T23:06:08.864Z,95.70
2019-01-19T23:08:42.512Z,95.80
2019-01-19T23:11:16.170Z,95.80
2019-01-19T23:13:49.914Z,95.70
2019-01-19T23:16:23.640Z,95.70
2019-01-19T23:18:57.349Z,95.80
2019-01-19T23:21:30.942Z,96.10
2019-01-19T23:24:04.746Z,95.80
2019-01-19T23:26:38.470Z,95.80
2019-01-19T23:29:12.137Z,95.80
2019-01-19T23:31:45.784Z,95.80
2019-01-19T23:34:19.429Z,95.80
2019-01-19T23:36:53.154Z,95.80
2019-01-19T23:39:26.796Z,95.80
2019-01-19T23:42:00.383Z,95.70
2019-01-19T23:44:34.095Z,95.70
2019-01-19T23:47:07.668Z,95.70
2019-01-19T23:49:41.276Z,95.60
2019-01-19T23:52:14.866Z,95.70
2019-01-19T23:54:48.459Z,95.60
2019-01-19T23:57:22.144Z,95.70
2019-01-19T23:59:55.856Z,95.70
